createdAt,value
2024-05-09T00:00:56.312Z,87.03
2024-05-09T00:03:25.672Z,87.38
2024-05-09T00:05:55.135Z,87.40
2024-05-09T00:08:24.727Z,83.82
2024-05-09T00:10:56.852Z,77.95
2024-05-09T00:13:26.391Z,79.38
2024-05-09T00:15:55.787Z,75.03
2024-05-09T00:18:25.367Z,78.85
2024-05-09T00:20:54.899Z,83.47
2024-05-09T00:23:24.314Z,77.30
2024-05-09T00:25:56.334Z,73.60
2024-05-09T00:28:26.105Z,80.85
2024-05-09T00:30:55.663Z,76.32
2024-05-09T00:33:25.208Z,72.35
2024-05-09T00:35:55.050Z,71.73
2024-05-09T00:38:24.458Z,77.07
2024-05-09T00:40:56.509Z,75.70
2024-05-09T00:43:25.901Z,80.60
2024-05-09T00:45:56.854Z,75.80
2024-05-09T00:48:26.735Z,87.97
2024-05-09T00:50:57.654Z,76.20
2024-05-09T00:53:27.602Z,79.03
2024-05-09T00:56:00.312Z,78.85
2024-05-09T00:58:31.664Z,77.70
2024-05-09T01:01:02.416Z,78.85
2024-05-09T01:03:31.962Z,76.70
2024-05-09T01:06:01.476Z,81.90
2024-05-09T01:08:31.142Z,74.05
2024-05-09T01:11:03.308Z,75.05
2024-05-09T01:13:32.704Z,73.78
2024-05-09T01:16:02.555Z,76.88
2024-05-09T01:18:32.217Z,75.68
2024-05-09T01:21:01.747Z,86.05
2024-05-09T01:23:33.920Z,74.50
2024-05-09T01:26:03.405Z,76.00
2024-05-09T01:28:32.753Z,77.75
2024-05-09T01:31:02.135Z,79.72
2024-05-09T01:33:31.677Z,86.65
2024-05-09T01:36:01.809Z,83.15
2024-05-09T01:38:33.836Z,83.57
2024-05-09T01:41:03.330Z,76.75
2024-05-09T01:43:32.820Z,75.07
2024-05-09T01:46:02.338Z,76.22
2024-05-09T01:48:31.846Z,76.40
2024-05-09T01:51:01.381Z,73.50
2024-05-09T01:53:31.082Z,71.18
2024-05-09T01:56:03.227Z,63.88
2024-05-09T01:58:33.138Z,71.07
2024-05-09T02:01:02.579Z,66.43
2024-05-09T02:03:32.089Z,65.95
2024-05-09T02:06:01.845Z,65.18
2024-05-09T02:08:31.531Z,64.90
2024-05-09T02:11:03.869Z,63.38
2024-05-09T02:13:33.331Z,57.20
2024-05-09T02:16:02.716Z,67.38
2024-05-09T02:18:32.153Z,65.80
2024-05-09T02:21:01.687Z,63.60
2024-05-09T02:23:31.360Z,63.70
2024-05-09T02:26:03.434Z,63.08
2024-05-09T02:28:32.784Z,68.03
2024-05-09T02:31:02.124Z,63.72
2024-05-09T02:33:31.731Z,60.70
2024-05-09T02:36:01.362Z,66.03
2024-05-09T02:38:28.170Z,68.50
2024-05-09T02:40:57.901Z,74.63
2024-05-09T02:43:27.532Z,71.82
2024-05-09T02:45:56.890Z,72.75
2024-05-09T02:48:24.082Z,68.43
2024-05-09T02:50:54.072Z,73.10
2024-05-09T02:53:20.849Z,65.95
2024-05-09T02:55:50.399Z,73.75
2024-05-09T02:58:17.218Z,68.40
2024-05-09T03:00:49.850Z,69.05
2024-05-09T03:03:17.072Z,64.47
2024-05-09T03:05:47.144Z,71.00
2024-05-09T03:08:14.247Z,62.63
2024-05-09T03:10:44.174Z,65.15
2024-05-09T03:13:14.158Z,64.22
2024-05-09T03:15:45.554Z,63.97
2024-05-09T03:18:15.223Z,64.28
2024-05-09T03:20:45.398Z,63.85
2024-05-09T03:23:12.537Z,63.20
2024-05-09T03:25:42.052Z,68.60
2024-05-09T03:28:08.808Z,64.80
2024-05-09T03:30:41.999Z,73.18
2024-05-09T03:33:10.764Z,70.13
2024-05-09T03:35:43.496Z,66.47
2024-05-09T03:38:13.049Z,68.97
2024-05-09T03:40:47.821Z,66.50
2024-05-09T03:43:15.274Z,67.93
2024-05-09T03:45:44.974Z,62.88
2024-05-09T03:48:12.659Z,62.83
2024-05-09T03:50:45.132Z,69.95
2024-05-09T03:53:13.567Z,71.60
2024-05-09T03:55:44.090Z,74.50
2024-05-09T03:58:12.764Z,74.20
2024-05-09T04:00:42.607Z,71.23
2024-05-09T04:03:11.802Z,73.63
2024-05-09T04:05:46.102Z,68.53
2024-05-09T04:08:14.236Z,76.27
2024-05-09T04:10:44.167Z,74.23
2024-05-09T04:13:11.218Z,74.32
2024-05-09T04:15:40.714Z,76.10
2024-05-09T04:18:07.733Z,83.90
2024-05-09T04:20:39.998Z,73.17
2024-05-09T04:23:12.352Z,75.63
2024-05-09T04:25:45.456Z,79.27
2024-05-09T04:28:15.750Z,79.23
2024-05-09T04:30:43.121Z,74.28
2024-05-09T04:33:14.300Z,66.97
2024-05-09T04:35:42.625Z,70.13
2024-05-09T04:38:15.717Z,68.47
2024-05-09T04:40:43.070Z,74.67
2024-05-09T04:43:18.823Z,68.85
2024-05-09T04:45:46.243Z,67.80
2024-05-09T04:48:16.596Z,71.63
2024-05-09T04:50:43.854Z,71.23
2024-05-09T04:53:18.678Z,70.30
2024-05-09T04:55:45.894Z,67.50
2024-05-09T04:58:15.306Z,70.93
2024-05-09T05:00:42.903Z,75.05
2024-05-09T05:03:15.845Z,73.78
2024-05-09T05:05:45.307Z,70.10
2024-05-09T05:08:19.855Z,71.97
2024-05-09T05:10:48.562Z,71.57
2024-05-09T05:13:20.388Z,72.22
2024-05-09T05:15:49.290Z,75.70
2024-05-09T05:18:19.375Z,75.43
2024-05-09T05:20:46.500Z,78.95
2024-05-09T05:23:21.174Z,71.22
2024-05-09T05:25:48.837Z,75.93
2024-05-09T05:28:19.196Z,72.93
2024-05-09T05:30:46.467Z,73.78
2024-05-09T05:33:18.138Z,81.38
2024-05-09T05:35:45.284Z,76.32
2024-05-09T05:38:14.750Z,72.65
2024-05-09T05:40:44.417Z,70.88
2024-05-09T05:43:19.780Z,76.47
2024-05-09T05:45:46.902Z,78.28
2024-05-09T05:48:17.947Z,73.78
2024-05-09T05:50:45.647Z,72.45
2024-05-09T05:53:15.602Z,75.20
2024-05-09T05:55:45.264Z,80.43
2024-05-09T05:58:15.180Z,80.38
2024-05-09T06:00:42.844Z,78.68
2024-05-09T06:03:14.461Z,76.70
2024-05-09T06:05:43.583Z,71.70
2024-05-09T06:08:13.499Z,78.93
2024-05-09T06:10:41.467Z,80.32
2024-05-09T06:13:15.665Z,81.75
2024-05-09T06:15:43.437Z,81.40
2024-05-09T06:18:13.728Z,73.60
2024-05-09T06:20:41.963Z,70.68
2024-05-09T06:23:13.000Z,69.80
2024-05-09T06:25:40.369Z,68.65
2024-05-09T06:28:09.749Z,71.97
2024-05-09T06:30:42.123Z,65.38
2024-05-09T06:33:15.826Z,65.78
2024-05-09T06:35:43.722Z,67.72
2024-05-09T06:38:13.427Z,63.67
2024-05-09T06:40:42.430Z,67.88
2024-05-09T06:43:14.042Z,66.97
2024-05-09T06:45:43.897Z,69.55
2024-05-09T06:48:13.971Z,71.05
2024-05-09T06:50:41.511Z,71.30
2024-05-09T06:53:11.256Z,75.40
2024-05-09T06:55:38.281Z,74.88
2024-05-09T06:58:08.984Z,74.05
2024-05-09T07:00:39.525Z,78.22
2024-05-09T07:03:16.936Z,72.28
2024-05-09T07:05:46.025Z,80.15
2024-05-09T07:08:16.325Z,113.68
2024-05-09T07:10:44.260Z,127.13
2024-05-09T07:13:15.745Z,122.63
2024-05-09T07:15:42.991Z,130.00
2024-05-09T07:18:19.950Z,170.38
2024-05-09T07:20:48.036Z,172.40
2024-05-09T07:23:18.606Z,165.80
2024-05-09T07:25:46.146Z,118.43
2024-05-09T07:28:34.521Z,108.47
2024-05-09T07:31:03.879Z,117.68
2024-05-09T07:33:33.404Z,139.75
2024-05-09T07:36:02.856Z,133.65
2024-05-09T07:38:29.757Z,122.97
2024-05-09T07:40:59.218Z,116.35
2024-05-09T07:43:27.905Z,91.07
2024-05-09T07:46:00.888Z,70.05
2024-05-09T07:53:52.170Z,53.28
2024-05-09T07:56:25.417Z,60.17
2024-05-09T07:58:53.043Z,62.03
2024-05-09T08:01:25.483Z,73.88
2024-05-09T08:03:55.324Z,83.07
2024-05-09T08:06:26.288Z,97.03
2024-05-09T08:08:53.161Z,100.30
2024-05-09T08:11:23.673Z,109.43
2024-05-09T08:13:50.506Z,141.68
2024-05-09T08:16:20.100Z,148.93
2024-05-09T08:18:48.664Z,175.80
2024-05-09T08:21:20.988Z,177.35
2024-05-09T08:23:47.770Z,162.95
2024-05-09T08:26:17.128Z,159.90
2024-05-09T08:28:43.915Z,119.38
2024-05-09T08:31:13.402Z,111.60
2024-05-09T08:33:44.193Z,102.43
2024-05-09T08:36:13.689Z,93.40
2024-05-09T08:38:43.071Z,95.45
2024-05-09T08:41:16.158Z,96.80
2024-05-09T08:43:44.481Z,95.53
2024-05-09T08:46:15.638Z,110.90
2024-05-09T08:48:45.629Z,111.72
2024-05-09T08:51:16.866Z,141.55
2024-05-09T08:53:46.435Z,154.48
2024-05-09T08:56:17.326Z,161.32
2024-05-09T08:58:45.355Z,151.18
2024-05-09T09:01:16.429Z,165.68
2024-05-09T09:03:44.808Z,168.52
2024-05-09T09:06:15.185Z,188.38
2024-05-09T09:08:42.386Z,167.43
2024-05-09T09:11:14.440Z,183.13
2024-05-09T09:13:41.300Z,178.07
2024-05-09T09:16:10.940Z,184.98
2024-05-09T09:18:37.914Z,167.30
2024-05-09T09:21:12.351Z,186.35
2024-05-09T09:23:39.162Z,170.20
2024-05-09T09:26:08.650Z,171.82
2024-05-09T09:28:40.514Z,174.20
2024-05-09T09:31:09.972Z,181.27
2024-05-09T09:33:42.031Z,180.43
2024-05-09T09:36:13.644Z,184.65
2024-05-09T09:38:41.496Z,180.35
2024-05-09T09:41:12.296Z,166.60
2024-05-09T09:43:42.391Z,185.65
2024-05-09T09:46:12.962Z,181.18
2024-05-09T09:48:40.642Z,169.85
2024-05-09T09:51:10.885Z,173.48
2024-05-09T09:53:38.716Z,177.32
2024-05-09T09:56:10.544Z,188.27
2024-05-09T09:58:42.208Z,179.50
2024-05-09T10:01:11.681Z,171.90
2024-05-09T10:03:38.903Z,167.27
2024-05-09T10:06:10.289Z,140.55
2024-05-09T10:08:37.740Z,129.88
2024-05-09T10:11:07.636Z,135.95
2024-05-09T10:13:34.911Z,142.45
2024-05-09T10:16:13.005Z,147.07
2024-05-09T10:18:40.835Z,129.07
2024-05-09T10:21:20.071Z,157.15
2024-05-09T10:23:57.464Z,141.07
2024-05-09T10:26:33.817Z,145.93
2024-05-09T10:29:03.483Z,122.30
2024-05-09T10:31:35.780Z,114.10
2024-05-09T10:34:02.997Z,139.85
2024-05-09T10:36:32.722Z,140.63
2024-05-09T10:38:59.679Z,129.93
2024-05-09T10:41:29.195Z,113.53
2024-05-09T10:43:55.988Z,123.00
2024-05-09T10:46:25.445Z,125.93
2024-05-09T10:48:54.980Z,118.53
2024-05-09T10:51:24.458Z,124.72
2024-05-09T10:53:52.372Z,133.02
2024-05-09T10:56:21.732Z,126.88
2024-05-09T10:58:51.352Z,127.75
2024-05-09T11:01:21.060Z,114.68
2024-05-09T11:03:48.748Z,105.53
2024-05-09T11:06:28.206Z,99.78
2024-05-09T11:08:57.107Z,104.57
2024-05-09T11:11:27.775Z,120.22
2024-05-09T11:13:54.600Z,91.65
2024-05-09T11:16:24.183Z,109.57
2024-05-09T11:18:55.989Z,102.15
2024-05-09T11:21:28.219Z,101.55
2024-05-09T11:23:55.309Z,105.95
2024-05-09T11:26:28.017Z,100.35
2024-05-09T11:28:54.837Z,105.10
2024-05-09T11:31:24.406Z,97.43
2024-05-09T11:33:54.458Z,102.90
2024-05-09T11:36:23.965Z,96.65
2024-05-09T11:38:53.470Z,103.60
2024-05-09T11:41:23.686Z,105.57
2024-05-09T11:43:50.482Z,104.50
2024-05-09T11:46:20.003Z,105.63
2024-05-09T11:48:47.026Z,109.00
2024-05-09T11:51:16.512Z,104.90
2024-05-09T11:53:43.262Z,104.82
2024-05-09T11:56:15.459Z,103.53
2024-05-09T11:58:42.242Z,99.05
2024-05-09T12:01:11.694Z,98.10
2024-05-09T12:03:38.660Z,99.82
2024-05-09T12:06:08.422Z,100.25
2024-05-09T12:08:35.250Z,90.28
2024-05-09T12:11:04.792Z,95.78
2024-05-09T12:13:34.315Z,102.85
2024-05-09T12:16:03.995Z,97.75
2024-05-09T12:18:31.425Z,104.47
2024-05-09T12:21:00.935Z,94.45
2024-05-09T12:23:27.759Z,96.13
2024-05-09T12:25:57.556Z,94.93
2024-05-09T12:28:26.608Z,94.32
2024-05-09T12:30:58.654Z,90.05
2024-05-09T12:33:25.515Z,103.88
2024-05-09T12:35:55.436Z,92.07
2024-05-09T12:38:22.196Z,98.35
2024-05-09T12:40:51.663Z,102.90
2024-05-09T12:43:19.084Z,101.10
2024-05-09T12:45:48.892Z,99.90
2024-05-09T12:48:18.642Z,96.65
2024-05-09T12:50:48.267Z,100.47
2024-05-09T12:53:15.107Z,103.93
2024-05-09T12:55:53.028Z,95.30
2024-05-09T12:58:24.396Z,105.15
2024-05-09T13:00:54.603Z,105.43
2024-05-09T13:03:24.255Z,100.28
2024-05-09T13:05:54.118Z,102.80
2024-05-09T13:08:21.312Z,98.15
2024-05-09T13:10:50.937Z,104.60
2024-05-09T13:13:17.800Z,104.70
2024-05-09T13:15:47.286Z,99.03
2024-05-09T13:18:14.193Z,104.55
2024-05-09T13:20:46.783Z,124.22
2024-05-09T13:23:13.705Z,101.80
2024-05-09T13:25:43.127Z,108.78
2024-05-09T13:28:10.091Z,99.68
2024-05-09T13:30:41.797Z,100.47
2024-05-09T13:33:09.676Z,112.25
2024-05-09T13:35:40.755Z,107.70
2024-05-09T13:38:13.795Z,109.72
2024-05-09T13:40:43.510Z,104.22
2024-05-09T13:43:10.326Z,108.00
2024-05-09T13:45:39.795Z,107.88
2024-05-09T13:48:09.549Z,106.97
2024-05-09T13:50:39.201Z,109.18
2024-05-09T13:53:07.610Z,105.25
2024-05-09T13:55:41.585Z,105.00
2024-05-09T13:58:09.598Z,105.78
2024-05-09T14:00:46.419Z,109.72
2024-05-09T14:03:17.129Z,113.15
2024-05-09T14:05:48.244Z,111.95
2024-05-09T14:08:15.714Z,108.95
2024-05-09T14:10:48.201Z,110.05
2024-05-09T14:13:15.809Z,105.97
2024-05-09T14:15:45.553Z,105.45
2024-05-09T14:18:14.174Z,103.55
2024-05-09T14:20:44.090Z,102.68
2024-05-09T14:23:11.059Z,109.97
2024-05-09T14:25:42.550Z,109.97
2024-05-09T14:28:13.667Z,106.93
2024-05-09T14:30:43.314Z,114.05
2024-05-09T14:33:11.220Z,110.18
2024-05-09T14:35:41.015Z,114.28
2024-05-09T14:38:08.954Z,116.40
2024-05-09T14:40:43.012Z,117.13
2024-05-09T14:43:15.081Z,108.80
2024-05-09T14:45:45.426Z,110.68
2024-05-09T14:48:14.647Z,113.13
2024-05-09T14:50:44.848Z,104.07
2024-05-09T14:53:12.886Z,109.50
2024-05-09T14:55:43.810Z,110.20
2024-05-09T14:58:13.777Z,106.85
2024-05-09T15:00:48.515Z,117.88
2024-05-09T15:03:18.395Z,106.82
2024-05-09T15:05:48.229Z,116.75
2024-05-09T15:08:17.283Z,112.72
2024-05-09T15:10:47.135Z,112.10
2024-05-09T15:13:17.386Z,110.10
2024-05-09T15:15:47.061Z,111.90
2024-05-09T15:18:14.373Z,113.03
2024-05-09T15:20:44.648Z,113.50
2024-05-09T15:23:11.715Z,107.63
2024-05-09T15:25:41.088Z,113.10
2024-05-09T15:28:08.367Z,119.53
2024-05-09T15:30:42.944Z,115.90
2024-05-09T15:33:12.371Z,119.03
2024-05-09T15:35:42.528Z,117.78
2024-05-09T15:38:09.737Z,118.40
2024-05-09T15:40:40.773Z,112.57
2024-05-09T15:43:10.638Z,119.05
2024-05-09T15:45:43.680Z,113.32
2024-05-09T15:48:11.227Z,113.30
2024-05-09T15:50:42.572Z,112.45
2024-05-09T15:53:11.361Z,121.30
2024-05-09T15:55:41.750Z,111.65
2024-05-09T15:58:09.228Z,111.68
2024-05-09T16:00:42.207Z,111.05
2024-05-09T16:03:14.502Z,112.38
2024-05-09T16:05:47.049Z,121.88
2024-05-09T16:08:15.274Z,107.28
2024-05-09T16:10:46.210Z,112.82
2024-05-09T16:13:14.673Z,116.72
2024-05-09T16:15:45.909Z,117.65
2024-05-09T16:18:15.797Z,115.22
2024-05-09T16:20:48.502Z,119.22
2024-05-09T16:23:17.144Z,127.18
2024-05-09T16:25:47.931Z,119.20
2024-05-09T16:28:15.291Z,120.85
2024-05-09T16:30:44.852Z,136.27
2024-05-09T16:33:12.131Z,128.45
2024-05-09T16:35:44.443Z,121.43
2024-05-09T16:38:11.299Z,117.35
2024-05-09T16:40:41.572Z,113.75
2024-05-09T16:43:09.746Z,122.85
2024-05-09T16:45:40.056Z,116.15
2024-05-09T16:48:08.214Z,121.07
2024-05-09T16:50:37.871Z,121.38
2024-05-09T16:53:07.648Z,118.32
2024-05-09T16:55:37.308Z,128.13
2024-05-09T16:58:05.566Z,114.72
2024-05-09T17:00:40.992Z,119.18
2024-05-09T17:03:11.619Z,117.15
2024-05-09T17:05:42.404Z,133.20
2024-05-09T17:08:12.648Z,126.15
2024-05-09T17:10:42.237Z,130.60
2024-05-09T17:13:11.759Z,137.52
2024-05-09T17:15:41.176Z,125.75
2024-05-09T17:18:08.638Z,132.65
2024-05-09T17:20:38.315Z,132.52
2024-05-09T17:23:12.381Z,126.60
2024-05-09T17:25:45.039Z,118.72
2024-05-09T17:28:12.475Z,114.95
2024-05-09T17:30:42.974Z,119.40
2024-05-09T17:33:11.271Z,130.35
2024-05-09T17:35:41.913Z,127.60
2024-05-09T17:38:09.314Z,113.07
2024-05-09T17:40:39.452Z,120.85
2024-05-09T17:43:10.645Z,126.07
2024-05-09T17:45:41.547Z,132.35
2024-05-09T17:48:09.676Z,128.10
2024-05-09T17:50:40.090Z,134.63
2024-05-09T17:53:08.469Z,138.32
2024-05-09T17:55:38.209Z,134.73
2024-05-09T17:58:05.951Z,130.73
2024-05-09T18:00:41.148Z,122.65
2024-05-09T18:03:11.096Z,113.40
2024-05-09T18:05:42.313Z,96.75
2024-05-09T18:08:09.950Z,79.90
2024-05-09T18:10:40.464Z,73.28
2024-05-09T18:13:08.310Z,66.57
2024-05-09T18:15:41.189Z,62.53
2024-05-09T18:18:09.104Z,66.78
2024-05-09T18:20:44.005Z,60.45
2024-05-09T18:23:14.345Z,61.08
2024-05-09T18:25:45.018Z,70.30
2024-05-09T18:28:11.918Z,79.25
2024-05-09T18:30:44.448Z,86.07
2024-05-09T18:33:11.965Z,102.97
2024-05-09T18:35:45.272Z,123.07
2024-05-09T18:38:12.788Z,118.68
2024-05-09T18:40:44.025Z,128.73
2024-05-09T18:43:16.014Z,132.05
2024-05-09T18:45:45.616Z,127.53
2024-05-09T18:48:15.929Z,131.68
2024-05-09T18:50:42.806Z,121.28
2024-05-09T18:53:13.875Z,113.78
2024-05-09T18:55:40.916Z,107.50
2024-05-09T18:58:10.477Z,94.47
2024-05-09T19:00:40.077Z,82.88
2024-05-09T19:03:15.377Z,61.33
2024-05-09T19:05:43.983Z,55.70
2024-05-09T19:08:15.075Z,50.85
2024-05-09T19:10:42.331Z,52.95
2024-05-09T19:13:13.676Z,55.92
2024-05-09T19:15:42.185Z,65.22
2024-05-09T19:18:15.748Z,67.25
2024-05-09T19:20:43.087Z,72.43
2024-05-09T19:23:12.908Z,87.50
2024-05-09T19:25:39.865Z,91.85
2024-05-09T19:28:09.664Z,100.65
2024-05-09T19:30:40.766Z,109.10
2024-05-09T19:33:13.513Z,103.05
2024-05-09T19:35:43.903Z,115.15
2024-05-09T19:38:13.873Z,110.70
2024-05-09T19:40:41.388Z,112.05
2024-05-09T19:43:11.395Z,119.20
2024-05-09T19:45:38.531Z,111.97
2024-05-09T19:48:08.989Z,114.55
2024-05-09T19:50:41.718Z,116.78
2024-05-09T19:53:16.786Z,109.28
2024-05-09T19:55:43.995Z,105.47
2024-05-09T19:58:13.741Z,116.07
2024-05-09T20:00:42.933Z,113.13
2024-05-09T20:03:14.836Z,107.20
2024-05-09T20:05:44.311Z,112.78
2024-05-09T20:08:16.568Z,107.05
2024-05-09T20:10:43.795Z,105.00
2024-05-09T20:13:13.640Z,103.55
2024-05-09T20:15:40.565Z,103.35
2024-05-09T20:18:10.198Z,101.43
2024-05-09T20:20:41.273Z,101.85
2024-05-09T20:23:16.341Z,97.85
2024-05-09T20:25:43.608Z,95.20
2024-05-09T20:28:13.284Z,95.88
2024-05-09T20:30:40.236Z,89.43
2024-05-09T20:33:10.228Z,95.30
2024-05-09T20:35:37.541Z,84.22
2024-05-09T20:38:07.255Z,81.38
2024-05-09T20:40:38.948Z,77.82
2024-05-09T20:43:10.800Z,77.10
2024-05-09T20:45:38.279Z,73.97
2024-05-09T20:48:09.322Z,69.50
2024-05-09T20:50:40.508Z,62.75
2024-05-09T20:53:12.877Z,65.20
2024-05-09T20:55:44.441Z,70.82
2024-05-09T20:58:14.488Z,62.63
2024-05-09T21:00:44.704Z,60.22
2024-05-09T21:03:17.009Z,61.55
2024-05-09T21:05:45.163Z,60.42
2024-05-09T21:08:14.695Z,63.05
2024-05-09T21:10:44.184Z,57.75
2024-05-09T21:13:13.868Z,55.88
2024-05-09T21:15:41.233Z,58.65
2024-05-09T21:18:11.133Z,64.43
2024-05-09T21:20:38.058Z,61.33
2024-05-09T21:23:07.888Z,58.72
2024-05-09T21:25:34.673Z,57.80
2024-05-09T21:28:06.945Z,58.60
2024-05-09T21:30:41.253Z,58.67
2024-05-09T21:33:14.025Z,61.28
2024-05-09T21:35:42.236Z,60.30
2024-05-09T21:38:13.315Z,53.05
2024-05-09T21:40:40.233Z,60.97
2024-05-09T21:43:12.519Z,53.30
2024-05-09T21:45:39.455Z,59.83
2024-05-09T21:48:10.167Z,59.22
2024-05-09T21:50:40.944Z,55.13
2024-05-09T21:53:12.640Z,52.13
2024-05-09T21:55:40.211Z,57.67
2024-05-09T21:58:12.289Z,53.30
2024-05-09T22:00:40.843Z,56.45
2024-05-09T22:03:12.052Z,55.97
2024-05-09T22:05:41.566Z,56.33
2024-05-09T22:08:11.617Z,60.40
2024-05-09T22:10:38.546Z,57.40
2024-05-09T22:13:08.573Z,60.75
2024-05-09T22:15:40.313Z,56.67
2024-05-09T22:18:11.672Z,53.75
2024-05-09T22:20:44.286Z,56.92
2024-05-09T22:23:15.194Z,51.72
2024-05-09T22:25:42.412Z,49.42
2024-05-09T22:28:12.177Z,56.00
2024-05-09T22:30:42.876Z,57.70
2024-05-09T22:33:12.868Z,57.20
2024-05-09T22:35:40.610Z,55.63
2024-05-09T22:38:10.409Z,49.10
2024-05-09T22:40:45.726Z,51.30
2024-05-09T22:43:24.393Z,51.35
2024-05-09T22:45:55.314Z,52.58
2024-05-09T22:48:26.109Z,54.83
2024-05-09T22:50:53.477Z,55.83
2024-05-09T22:53:24.181Z,51.38
2024-05-09T22:55:50.983Z,51.30
2024-05-09T22:58:20.726Z,54.28
2024-05-09T23:00:47.742Z,51.40
2024-05-09T23:03:21.519Z,54.15
2024-05-09T23:05:48.660Z,51.03
2024-05-09T23:08:18.041Z,52.72
2024-05-09T23:10:44.937Z,51.15
2024-05-09T23:13:14.741Z,52.25
2024-05-09T23:15:41.580Z,47.22
2024-05-09T23:18:11.214Z,51.83
2024-05-09T23:20:43.499Z,49.90
2024-05-09T23:23:11.603Z,48.83
2024-05-09T23:25:42.210Z,45.90
2024-05-09T23:28:09.553Z,45.78
2024-05-09T23:30:40.887Z,48.92
2024-05-09T23:33:09.759Z,49.20
2024-05-09T23:35:39.514Z,48.70
2024-05-09T23:38:08.920Z,48.75
2024-05-09T23:40:40.796Z,46.47
2024-05-09T23:43:09.314Z,46.17
2024-05-09T23:45:39.093Z,49.40
2024-05-09T23:48:07.589Z,44.03
2024-05-09T23:50:39.080Z,49.05
2024-05-09T23:53:10.668Z,50.70
2024-05-09T23:55:40.674Z,47.63
2024-05-09T23:58:07.904Z,47.65
